North Bay Airport
CYYB : now visible

Airfield :











YOU CAN JOIN US ON...

 
LOGIN :

Register | Disclaimer

   EN    FR    IT 

 









Legend :    VFR   Marginal VFR   IFR   Intensive IFR   Very Intensive IFR
Visi :
Ceiling :
>= 8 km
>= 3000ft
5 to 8 km
1000 to 3000 ft
1500m to 5 km
500 to 1000 ft
800 to 1500m
200 to 500 ft
< 800m
< 200 ft
Symbols :   Thunderstorms  Fog  Heavy snow  Heavy precipitations  Wind > 20 kt






- Airport Elevation : 1215 ft
- IATA code : YYB


CYYB - North Bay

CURRENT METAR :
  • 160400Z AUTO 24005KT 9SM CLR 12/M01 A3018 RMK SLP224

EXPIRED METARs :
  • 160300Z AUTO 24005KT 9SM CLR 13/M01 A3017 RMK SLP222
  • 160200Z 25006KT 15SM FEW090 15/M00 A3016 RMK AC1 LAST STFD OBS/NEXT 161100 UTC SLP220

TAF TAF CYYB
Valid from the 16 at 02:00 until the 16 at 14:00 UTC


160138Z 1602/1614 25005KT P6SM FEW090
FM160600 28005KT P6SM FEW100
BECMG 1606/1608 VRB03KT RMK NXT FCST BY 160800Z
CZYZ FIR / North America



MET'MAP, your aeronautical weather chart ! - Copyright ORBIFLY December 2007 - Disclaimer

ORBIFLY MET'MAP TEAM :

Programming & Development : Alexandra Zaïnal
Concept & original design : Baudouin d'Aumeries
Assistance for programming : Marc-Olivier Méhu
Technical & hardware support : Manuel Goepfert

Contact : metmap@orbifly.com




SOURCES & CREDITS :

   NOAA       Earth
Advisory